Time;durP1;ratioP1;P1;durP2;ratioP2;P2;SDS_P1;SDS_P2;PMS_P1;PMS_P2;Temp;Humidity;BMP_temperature;BMP_pressure;BME280_temperature;BME280_humidity;BME280_pressure;Samples;Min_cycle;Max_cycle;Signal;HPM_P1;HPM_P2
2022/01/05 00:01:25;;;;;;;10.98;6.95;;;3.30;99.90;;;3.56;100.00;96588.53;4928077;28;128761;-75
2022/01/05 00:03:54;;;;;;;9.88;5.75;;;3.20;99.90;;;3.53;100.00;96579.25;4946180;28;129880;-76
2022/01/05 00:06:24;;;;;;;9.68;6.25;;;3.30;99.90;;;3.45;100.00;96572.13;4930335;28;122370;-75
2022/01/05 00:08:53;;;;;;;9.48;6.05;;;3.20;99.90;;;3.59;100.00;96566.41;4946609;28;121703;-76
2022/01/05 00:11:22;;;;;;;8.40;5.40;;;3.20;99.90;;;3.54;100.00;96563.97;4931379;28;129547;-77
2022/01/05 00:13:52;;;;;;;9.98;5.40;;;3.20;99.90;;;3.41;100.00;96569.34;4946239;28;130223;-75
2022/01/05 00:16:21;;;;;;;7.07;4.28;;;3.20;99.90;;;3.50;100.00;96553.13;4931605;28;118693;-76
2022/01/05 00:18:51;;;;;;;9.35;4.93;;;3.20;99.90;;;3.55;100.00;96544.06;4946362;28;119341;-76
2022/01/05 00:21:26;;;;;;;7.80;4.22;;;3.20;99.90;;;3.59;100.00;96537.69;4946068;28;129521;-76
2022/01/05 00:23:55;;;;;;;6.65;4.30;;;3.20;99.90;;;3.50;100.00;96542.41;4948534;28;129806;-75
2022/01/05 00:26:25;;;;;;;6.15;3.97;;;3.20;99.90;;;3.51;100.00;96543.97;4948705;28;120076;-75
2022/01/05 00:28:54;;;;;;;6.18;3.78;;;3.20;99.90;;;3.46;100.00;96525.44;4943722;28;119331;-75
2022/01/05 00:31:23;;;;;;;6.72;3.60;;;3.20;99.90;;;3.52;100.00;96528.66;4944486;28;130354;-76
2022/01/05 00:33:53;;;;;;;6.53;3.35;;;3.10;99.90;;;3.29;100.00;96534.50;4945876;28;129605;-76
2022/01/05 00:36:24;;;;;;;7.10;3.85;;;3.10;99.90;;;3.32;100.00;96528.47;4945889;28;119214;-76
2022/01/05 00:38:52;;;;;;;6.57;3.72;;;3.10;99.90;;;3.28;100.00;96518.75;4961380;28;119501;-76
2022/01/05 00:41:22;;;;;;;5.97;3.45;;;3.10;99.90;;;3.32;100.00;96516.94;4914670;28;129088;-76
2022/01/05 00:43:50;;;;;;;5.68;3.35;;;3.10;99.90;;;3.31;100.00;96512.72;4946024;28;130167;-75
2022/01/05 00:46:19;;;;;;;6.38;3.65;;;3.00;99.90;;;3.23;100.00;96501.78;4946440;28;119522;-75
2022/01/05 00:48:48;;;;;;;5.63;3.35;;;3.00;99.90;;;3.36;100.00;96494.50;4946650;28;120027;-75
2022/01/05 00:51:18;;;;;;;6.15;3.78;;;3.00;99.90;;;3.29;100.00;96485.44;4930840;28;128731;-76
2022/01/05 00:53:47;;;;;;;4.53;2.75;;;3.00;99.90;;;3.19;100.00;96479.44;4945775;28;129717;-75
2022/01/05 00:56:16;;;;;;;5.97;3.10;;;3.00;99.90;;;3.30;100.00;96478.97;4960392;28;121952;-75
2022/01/05 00:58:44;;;;;;;5.28;2.63;;;3.00;99.90;;;3.15;100.00;96483.91;4938978;28;121738;-75
2022/01/05 01:01:13;;;;;;;5.63;2.83;;;2.90;99.90;;;3.03;100.00;96476.66;4947259;28;129839;-77
2022/01/05 01:03:41;;;;;;;4.60;2.90;;;2.90;99.90;;;2.98;100.00;96473.44;4947161;28;128840;-76
2022/01/05 01:06:10;;;;;;;4.78;3.10;;;2.90;99.90;;;3.10;100.00;96449.31;4931540;28;120597;-77
2022/01/05 01:08:40;;;;;;;6.45;3.03;;;2.90;99.90;;;3.17;100.00;96449.53;4945361;28;118292;-76
2022/01/05 01:11:14;;;;;;;4.95;2.45;;;2.80;99.90;;;3.24;100.00;96444.38;4944773;28;129994;-76
2022/01/05 01:13:44;;;;;;;5.30;3.08;;;2.80;99.90;;;3.20;100.00;96429.31;4937392;28;129755;-75
2022/01/05 01:16:13;;;;;;;4.30;2.65;;;2.80;99.90;;;3.15;100.00;96429.56;4941884;28;120040;-76
2022/01/05 01:18:41;;;;;;;4.50;2.75;;;2.70;99.90;;;3.10;100.00;96427.88;4945708;28;119397;-76
2022/01/05 01:21:10;;;;;;;5.60;3.08;;;2.70;99.90;;;3.06;100.00;96416.28;4929098;28;129283;-76
2022/01/05 01:23:53;;;;;;;6.45;3.30;;;2.70;99.90;;;3.16;100.00;96410.44;4945048;28;129202;-76
2022/01/05 01:26:29;;;;;;;4.15;2.70;;;2.70;99.90;;;3.24;100.00;96409.53;4944325;28;119544;-75
2022/01/05 01:28:59;;;;;;;5.03;2.65;;;2.70;99.90;;;3.30;100.00;96409.28;4942614;28;119636;-76
2022/01/05 01:31:28;;;;;;;4.93;2.83;;;2.70;99.90;;;3.39;100.00;96401.91;4941272;28;129634;-75
2022/01/05 01:33:58;;;;;;;5.18;2.75;;;2.80;99.90;;;3.44;100.00;96387.47;4943946;28;130065;-75
2022/01/05 01:36:28;;;;;;;4.95;2.90;;;2.80;99.90;;;3.48;100.00;96391.81;4927440;28;121521;-75
2022/01/05 01:38:59;;;;;;;5.95;3.03;;;2.80;99.90;;;3.51;100.00;96393.81;4960447;28;119734;-75
2022/01/05 01:41:28;;;;;;;4.93;3.08;;;2.80;99.90;;;3.47;100.00;96387.56;4944658;28;129759;-74
2022/01/05 01:43:56;;;;;;;5.82;3.38;;;2.80;99.90;;;3.53;100.00;96388.88;4944840;28;129760;-77
2022/01/05 01:46:25;;;;;;;5.38;3.08;;;2.90;99.90;;;3.58;100.00;96383.28;4944420;28;122134;-76
2022/01/05 01:48:54;;;;;;;6.07;3.20;;;2.90;99.90;;;3.66;100.00;96378.09;4962851;28;120671;-75
2022/01/05 01:51:22;;;;;;;5.30;3.20;;;2.90;99.90;;;3.68;100.00;96378.56;4944477;28;129765;-75
2022/01/05 01:53:51;;;;;;;6.60;3.08;;;2.90;99.90;;;3.58;100.00;96383.28;4944672;28;129735;-75
2022/01/05 01:56:25;;;;;;;5.35;3.15;;;3.00;99.90;;;3.64;100.00;96380.38;4962542;28;119014;-75
2022/01/05 01:58:54;;;;;;;6.93;3.85;;;3.00;99.90;;;3.65;100.00;96374.66;4945006;28;119664;-75
2022/01/05 02:01:22;;;;;;;7.40;3.95;;;3.00;99.90;;;3.70;100.00;96384.38;4929751;28;129418;-75
2022/01/05 02:03:52;;;;;;;6.88;3.95;;;3.00;99.90;;;3.73;100.00;96370.25;4930197;28;130129;-75
2022/01/05 02:06:20;;;;;;;5.88;3.67;;;3.00;99.90;;;3.81;100.00;96374.69;4947241;28;119797;-75
2022/01/05 02:08:49;;;;;;;6.97;3.85;;;3.00;99.90;;;3.90;100.00;96372.63;4945003;28;119538;-75
2022/01/05 02:11:18;;;;;;;5.85;3.70;;;3.10;99.90;;;3.90;100.00;96361.91;4925257;28;129978;-76
2022/01/05 02:13:49;;;;;;;6.13;3.97;;;3.10;99.90;;;3.91;100.00;96360.78;4938355;28;129871;-75
2022/01/05 02:16:22;;;;;;;6.40;4.13;;;3.10;99.90;;;3.88;100.00;96353.41;4944533;28;119962;-75
2022/01/05 02:18:59;;;;;;;6.60;3.90;;;3.10;99.90;;;3.93;100.00;96360.44;4939087;28;119576;-76
2022/01/05 02:21:31;;;;;;;7.50;4.50;;;3.20;99.90;;;4.01;100.00;96345.31;4922012;28;128847;-75
2022/01/05 02:24:00;;;;;;;6.90;3.67;;;3.20;99.90;;;3.61;100.00;96349.63;4944132;28;130321;-75
2022/01/05 02:26:29;;;;;;;6.97;4.25;;;3.10;99.90;;;3.74;100.00;96342.31;4943627;28;119500;-75
2022/01/05 02:28:58;;;;;;;8.63;4.93;;;3.20;99.90;;;3.84;100.00;96341.81;4930345;28;118639;-76
2022/01/05 02:31:27;;;;;;;6.22;4.47;;;3.20;99.90;;;3.95;100.00;96342.84;4945409;28;129594;-75
2022/01/05 02:33:56;;;;;;;7.50;4.30;;;3.20;99.90;;;3.93;100.00;96350.47;4944023;28;129583;-75
2022/01/05 02:36:24;;;;;;;8.73;5.00;;;3.20;99.90;;;3.99;100.00;96352.91;4942709;28;122244;-76
2022/01/05 02:38:57;;;;;;;6.43;4.25;;;3.20;99.90;;;4.02;100.00;96344.16;4945716;28;121872;-75
2022/01/05 02:41:26;;;;;;;7.50;5.40;;;3.20;99.90;;;4.02;100.00;96346.84;4943675;28;130557;-75
2022/01/05 02:43:55;;;;;;;7.78;5.03;;;3.30;99.90;;;4.10;100.00;96349.38;4929743;28;129166;-76
2022/01/05 02:46:25;;;;;;;7.03;4.70;;;3.30;99.90;;;4.19;100.00;96343.84;4945055;28;120047;-76
2022/01/05 02:48:56;;;;;;;6.90;4.88;;;3.30;99.90;;;4.23;100.00;96350.06;4944797;28;119668;-76
2022/01/05 02:51:25;;;;;;;7.78;5.00;;;3.30;99.90;;;4.27;100.00;96345.56;4943704;28;130675;-77
2022/01/05 02:53:57;;;;;;;7.78;5.15;;;3.40;99.90;;;4.28;100.00;96344.41;4944484;28;130198;-76
2022/01/05 02:56:26;;;;;;;7.90;5.85;;;3.40;99.90;;;4.23;100.00;96355.44;4929636;28;118953;-76
2022/01/05 02:58:57;;;;;;;9.32;5.75;;;3.30;99.90;;;4.09;100.00;96353.16;4962130;28;119042;-77
2022/01/05 03:01:26;;;;;;;7.70;5.15;;;3.30;99.90;;;3.96;100.00;96360.53;4960102;28;130479;-77
2022/01/05 03:04:08;;;;;;;7.68;5.40;;;3.20;99.90;;;3.92;100.00;96356.97;4945598;28;129637;-77
2022/01/05 03:06:37;;;;;;;8.32;5.57;;;3.20;99.90;;;4.02;100.00;96350.31;4943715;28;119503;-76
2022/01/05 03:09:06;;;;;;;9.40;6.40;;;3.20;99.90;;;4.02;100.00;96362.94;4944317;28;119503;-76
2022/01/05 03:11:39;;;;;;;9.75;6.28;;;3.20;99.90;;;4.07;100.00;96368.06;4945065;28;130086;-76
2022/01/05 03:14:08;;;;;;;9.63;6.97;;;3.30;99.90;;;4.00;100.00;96355.25;4929187;28;128864;-76
2022/01/05 03:16:36;;;;;;;11.98;8.40;;;3.30;99.90;;;3.91;100.00;96366.16;4928909;28;118588;-76
2022/01/05 03:19:08;;;;;;;10.35;7.05;;;3.30;99.90;;;3.87;100.00;96357.22;4944398;28;119911;-76
2022/01/05 03:21:36;;;;;;;12.20;7.25;;;3.20;99.90;;;3.82;100.00;96354.78;4928809;28;130069;-76
2022/01/05 03:24:08;;;;;;;11.35;7.82;;;3.20;99.90;;;3.71;100.00;96364.44;4944271;28;129628;-76
2022/01/05 03:26:37;;;;;;;11.70;7.45;;;3.20;99.90;;;3.67;100.00;96363.59;4942167;28;121390;-76
2022/01/05 03:29:08;;;;;;;10.50;6.90;;;3.20;99.90;;;3.63;100.00;96374.22;4945626;28;122249;-76
2022/01/05 03:31:37;;;;;;;9.07;6.40;;;3.20;99.90;;;3.67;100.00;96385.03;4942771;28;129964;-76
2022/01/05 03:34:18;;;;;;;10.27;6.57;;;3.30;99.90;;;3.65;100.00;96379.25;4943416;28;129675;-76
2022/01/05 03:36:47;;;;;;;11.95;7.07;;;3.30;99.90;;;3.69;100.00;96388.16;4954233;28;119414;-76
2022/01/05 03:39:17;;;;;;;11.13;7.20;;;3.40;99.90;;;3.64;100.00;96383.03;4943423;28;119303;-76
2022/01/05 03:41:46;;;;;;;10.63;6.85;;;3.40;99.90;;;3.68;100.00;96386.63;4928704;28;129541;-76
2022/01/05 03:44:14;;;;;;;11.18;7.68;;;3.40;99.90;;;3.66;100.00;96394.19;4928980;28;129702;-76
2022/01/05 03:46:51;;;;;;;12.90;7.68;;;3.40;99.90;;;3.52;100.00;96395.38;4946213;28;120011;-76
2022/01/05 03:49:20;;;;;;;9.90;6.38;;;3.40;99.90;;;3.52;100.00;96405.31;4942922;28;119607;-77
2022/01/05 03:51:48;;;;;;;11.93;7.78;;;3.30;99.90;;;3.53;100.00;96413.00;4927268;28;129525;-76
2022/01/05 03:54:47;;;;;;;9.93;6.45;;;3.30;99.90;;;3.46;100.00;96410.16;4943068;28;129860;-76
2022/01/05 03:57:16;;;;;;;9.73;6.10;;;3.20;99.90;;;3.35;100.00;96411.72;4939965;28;119500;-76
2022/01/05 03:59:44;;;;;;;8.05;5.43;;;3.20;99.90;;;3.30;100.00;96420.78;4937035;28;119215;-75
2022/01/05 04:02:12;;;;;;;8.52;5.47;;;3.20;99.90;;;3.25;100.00;96418.34;4942050;28;129358;-74
2022/01/05 04:04:41;;;;;;;8.85;5.25;;;3.20;99.90;;;3.21;100.00;96423.63;4942203;28;129648;-76
2022/01/05 04:07:09;;;;;;;7.63;4.88;;;3.20;99.90;;;3.21;100.00;96431.66;4940848;28;119517;-76
2022/01/05 04:09:38;;;;;;;7.03;4.47;;;3.20;99.90;;;3.22;100.00;96435.88;4911512;28;118649;-76
2022/01/05 04:12:10;;;;;;;6.97;4.07;;;3.20;99.90;;;3.17;100.00;96446.84;4908380;28;130089;-75
2022/01/05 04:14:39;;;;;;;6.25;2.90;;;3.20;99.90;;;3.11;100.00;96456.22;4960084;28;128799;-74
2022/01/05 04:17:07;;;;;;;6.18;4.18;;;3.20;99.90;;;3.08;100.00;96459.56;4941761;28;122175;-76
2022/01/05 04:19:36;;;;;;;5.35;3.28;;;3.20;99.90;;;3.07;100.00;96476.78;4942396;28;121759;-75
2022/01/05 04:22:09;;;;;;;5.43;3.10;;;3.20;99.90;;;3.09;100.00;96474.53;4942591;28;129787;-75
2022/01/05 04:24:37;;;;;;;5.70;3.05;;;3.20;99.90;;;3.12;100.00;96483.81;4942556;28;129987;-76
2022/01/05 04:27:08;;;;;;;6.05;3.38;;;3.20;99.90;;;3.03;100.00;96492.72;4938898;28;120252;-75
2022/01/05 04:29:36;;;;;;;5.80;3.95;;;3.10;99.90;;;2.93;100.00;96497.75;4942092;28;119978;-75
2022/01/05 04:32:06;;;;;;;6.63;4.07;;;3.10;99.90;;;2.88;100.00;96507.59;4942295;28;130760;-76
2022/01/05 04:34:34;;;;;;;4.70;3.00;;;3.00;99.90;;;2.74;100.00;96528.53;4939109;28;129794;-75
2022/01/05 04:37:03;;;;;;;4.70;3.08;;;2.90;99.90;;;2.65;100.00;96520.63;4940291;28;119718;-76
2022/01/05 04:39:32;;;;;;;4.32;2.53;;;2.90;99.90;;;2.43;100.00;96532.50;4941177;28;120486;-74
2022/01/05 04:42:00;;;;;;;4.35;2.50;;;2.80;99.90;;;2.41;100.00;96526.69;4917379;28;129990;-77
2022/01/05 04:44:30;;;;;;;3.75;2.05;;;2.70;99.90;;;2.15;100.00;96526.94;4952820;28;129463;-74
2022/01/05 04:46:59;;;;;;;3.72;2.30;;;2.60;99.90;;;2.00;100.00;96568.44;4943009;28;119552;-76
2022/01/05 04:49:28;;;;;;;3.78;2.20;;;2.50;99.90;;;2.00;100.00;96544.38;4927770;28;119495;-75
2022/01/05 04:51:57;;;;;;;3.80;2.30;;;2.50;99.90;;;1.96;100.00;96551.47;4943230;28;130271;-75
2022/01/05 04:54:26;;;;;;;4.90;2.40;;;2.40;99.90;;;1.94;100.00;96586.56;4944022;28;129479;-75
2022/01/05 04:56:54;;;;;;;4.38;2.65;;;2.30;99.90;;;1.87;100.00;96578.31;4945701;28;119490;-75
2022/01/05 04:59:27;;;;;;;2.92;1.63;;;2.20;99.90;;;1.69;100.00;96588.31;4948562;28;119472;-75
2022/01/05 05:01:56;;;;;;;3.40;1.77;;;2.10;99.90;;;1.72;100.00;96593.03;4963688;28;129585;-74
2022/01/05 05:04:25;;;;;;;3.83;1.92;;;2.10;99.90;;;1.66;100.00;96588.97;4946025;28;130003;-75
2022/01/05 05:06:56;;;;;;;1.70;1.10;;;2.10;99.90;;;1.61;100.00;96597.19;4944861;28;122848;-75
2022/01/05 05:09:25;;;;;;;2.10;1.30;;;2.10;99.90;;;1.61;100.00;96603.31;4932034;28;121186;-88
2022/01/05 05:11:53;;;;;;;1.38;1.00;;;2.10;99.90;;;1.68;100.00;96599.34;4948141;28;129642;-75
2022/01/05 05:14:21;;;;;;;1.27;1.10;;;2.10;99.90;;;1.62;100.00;96609.44;4948248;28;129823;-75
2022/01/05 05:16:50;;;;;;;1.52;1.10;;;2.10;99.90;;;1.66;100.00;96621.06;4946501;28;119716;-75
2022/01/05 05:19:20;;;;;;;3.30;1.48;;;2.10;99.90;;;1.70;100.00;96631.88;4946316;28;119345;-75
2022/01/05 05:21:49;;;;;;;2.35;1.23;;;2.10;99.90;;;1.63;100.00;96635.06;4944852;28;129997;-75
2022/01/05 05:24:17;;;;;;;1.63;1.20;;;2.10;99.90;;;1.53;100.00;96632.78;4944030;28;129729;-75
2022/01/05 05:26:45;;;;;;;10.52;6.40;;;2.10;99.90;;;1.59;100.00;96631.47;4945613;28;120521;-75
2022/01/05 05:29:14;;;;;;;1.90;1.40;;;2.10;99.90;;;1.59;100.00;96642.97;4929152;28;118880;-75
2022/01/05 05:31:46;;;;;;;4.82;2.38;;;2.00;99.90;;;1.55;100.00;96658.06;4944011;28;129868;-75
2022/01/05 05:34:14;;;;;;;5.40;2.45;;;2.00;99.90;;;1.59;100.00;96658.19;4947334;28;130760;-74
2022/01/05 05:36:45;;;;;;;10.18;5.85;;;2.00;99.90;;;1.52;100.00;96671.28;4945851;28;119801;-74
2022/01/05 05:39:13;;;;;;;3.42;2.13;;;2.00;99.90;;;1.51;100.00;96648.34;4960884;28;119929;-74
2022/01/05 05:41:42;;;;;;;3.10;1.80;;;2.00;99.90;;;1.39;100.00;96660.50;4930273;28;129748;-75
2022/01/05 05:44:11;;;;;;;3.72;2.40;;;2.00;99.90;;;1.43;100.00;96685.50;4945646;28;130355;-75
2022/01/05 05:46:39;;;;;;;3.40;2.00;;;1.90;99.90;;;1.40;100.00;96664.75;4946099;28;119813;-74
2022/01/05 05:49:08;;;;;;;2.80;1.58;;;1.90;99.90;;;1.44;100.00;96668.31;4945915;28;119325;-75
2022/01/05 05:51:36;;;;;;;3.33;1.90;;;1.90;99.90;;;1.40;100.00;96656.72;4945092;28;130045;-74
2022/01/05 05:54:07;;;;;;;3.47;1.95;;;1.90;99.90;;;1.41;100.00;96655.59;4942861;28;130183;-73
2022/01/05 05:56:35;;;;;;;2.70;1.50;;;1.80;99.90;;;1.47;100.00;96666.13;4942956;28;122053;-78
2022/01/05 05:59:05;;;;;;;3.85;2.17;;;1.80;99.90;;;1.40;100.00;96678.09;4960314;28;121045;-80
2022/01/05 06:01:37;;;;;;;3.28;2.10;;;1.90;99.90;;;1.37;100.00;96670.72;4945885;28;130078;-79
2022/01/05 06:04:08;;;;;;;3.90;1.95;;;1.90;99.90;;;1.35;100.00;96680.16;4948338;28;130199;-79
2022/01/05 06:06:37;;;;;;;3.75;2.50;;;1.80;99.90;;;1.48;100.00;96699.75;4946112;28;119815;-79
2022/01/05 06:09:09;;;;;;;14.10;10.70;;;1.80;99.90;;;1.53;100.00;96670.19;4932844;28;119399;-79
2022/01/05 06:11:38;;;;;;;5.75;3.03;;;1.80;99.90;;;1.54;100.00;96671.75;4927192;28;129609;-79
2022/01/05 06:14:07;;;;;;;3.80;2.38;;;1.80;99.90;;;1.53;100.00;96667.53;4944079;28;128760;-79
2022/01/05 06:16:35;;;;;;;5.00;3.20;;;1.90;99.90;;;1.52;100.00;96690.00;4910945;28;119198;-78
2022/01/05 06:19:04;;;;;;;5.20;3.38;;;1.90;99.90;;;1.56;100.00;96685.59;4927625;28;119021;-81
2022/01/05 06:21:33;;;;;;;6.93;4.68;;;1.90;99.90;;;1.57;100.00;96692.50;4924061;28;130255;-79
2022/01/05 06:24:02;;;;;;;8.35;4.40;;;1.90;99.90;;;1.60;100.00;96691.84;4943717;28;129429;-82
2022/01/05 06:26:36;;;;;;;10.73;5.40;;;1.90;99.90;;;1.61;100.00;96698.78;4926119;28;119406;-78
2022/01/05 06:29:04;;;;;;;7.18;4.43;;;1.90;99.90;;;1.57;100.00;96695.16;4911097;28;118173;-80
2022/01/05 06:31:33;;;;;;;8.43;4.70;;;1.90;99.90;;;1.66;100.00;96711.97;4926525;28;129384;-80
2022/01/05 06:34:06;;;;;;;8.15;4.22;;;1.80;99.90;;;1.66;100.00;96706.59;4927083;28;129331;-81
2022/01/05 06:36:35;;;;;;;7.40;4.45;;;1.80;99.90;;;1.60;100.00;96718.59;4925866;28;119885;-79
2022/01/05 06:39:04;;;;;;;8.20;4.15;;;1.80;99.90;;;1.56;100.00;96723.03;4926031;28;119814;-79
2022/01/05 06:41:35;;;;;;;6.25;3.60;;;1.70;99.90;;;1.58;100.00;96726.16;4926207;28;129773;-79
2022/01/05 06:44:08;;;;;;;11.40;7.30;;;1.70;99.90;;;1.58;100.00;96728.81;4922386;28;129744;-79
2022/01/05 06:46:36;;;;;;;8.52;5.15;;;1.70;99.90;;;1.62;100.00;96729.72;4921950;28;121577;-81
2022/01/05 06:49:06;;;;;;;11.30;5.70;;;1.80;99.90;;;1.64;100.00;96748.94;4909112;28;121837;-79
2022/01/05 06:51:35;;;;;;;10.10;6.07;;;1.80;99.90;;;1.73;100.00;96760.38;4906346;28;129772;-81
2022/01/05 06:54:03;;;;;;;7.00;4.45;;;1.80;99.90;;;1.71;100.00;96762.56;4908581;28;129651;-80
2022/01/05 06:56:41;;;;;;;8.73;4.95;;;1.80;99.90;;;1.85;100.00;96773.06;4909384;28;119148;-84
2022/01/05 06:59:12;;;;;;;6.75;4.03;;;1.80;99.90;;;1.80;100.00;96779.38;4893694;28;118942;-80
2022/01/05 07:01:44;;;;;;;7.85;5.13;;;1.90;99.90;;;1.87;100.00;96796.81;4937330;28;128816;-81
2022/01/05 07:04:15;;;;;;;8.63;5.35;;;1.90;99.90;;;1.89;100.00;96784.69;4940127;28;129400;-81
2022/01/05 07:06:49;;;;;;;8.05;4.60;;;1.90;99.90;;;1.92;100.00;96775.25;4942449;28;119459;-82
2022/01/05 07:09:18;;;;;;;6.13;3.88;;;1.90;99.90;;;1.94;100.00;96775.72;4928449;28;117845;-80
2022/01/05 07:11:48;;;;;;;6.05;3.33;;;1.90;99.90;;;1.98;100.00;96782.00;4925515;28;128898;-82
2022/01/05 07:14:17;;;;;;;6.05;3.70;;;1.90;99.90;;;1.99;100.00;96794.25;4953147;28;129527;-79
2022/01/05 07:16:45;;;;;;;7.43;4.10;;;1.90;99.90;;;2.02;100.00;96798.97;4933183;28;119284;-80
2022/01/05 07:19:15;;;;;;;9.18;5.72;;;2.00;99.90;;;2.13;100.00;96805.50;4965442;28;118295;-80
2022/01/05 07:21:44;;;;;;;12.65;8.45;;;2.10;99.90;;;2.31;100.00;96808.13;4965564;28;129851;-83
2022/01/05 07:24:16;;;;;;;12.23;8.23;;;2.10;99.90;;;2.34;100.00;96810.94;4962657;28;129865;-81
2022/01/05 07:26:48;;;;;;;14.25;8.60;;;2.10;99.90;;;2.46;100.00;96812.94;4929835;28;119344;-82
2022/01/05 07:29:19;;;;;;;12.50;9.50;;;2.20;99.90;;;2.53;100.00;96819.66;4961506;28;119175;-83
2022/01/05 07:31:51;;;;;;;9.50;5.90;;;2.30;99.90;;;2.53;100.00;96835.72;4944465;28;129055;-84
2022/01/05 07:34:21;;;;;;;24.42;16.98;;;2.30;99.90;;;2.55;100.00;96842.31;4928586;28;128500;-82
2022/01/05 07:36:56;;;;;;;61.53;39.63;;;2.40;99.90;;;2.66;100.00;96843.50;4942847;28;122543;-82
2022/01/05 07:39:25;;;;;;;30.65;20.88;;;2.40;99.90;;;2.53;100.00;96844.53;4928843;28;120825;-81
2022/01/05 07:42:01;;;;;;;45.45;29.75;;;2.40;99.90;;;2.59;100.00;96853.19;4941233;28;130185;-81
2022/01/05 07:44:29;;;;;;;37.60;25.45;;;2.40;99.90;;;2.57;100.00;96856.19;4946225;28;129280;-82
2022/01/05 07:46:57;;;;;;;18.88;13.45;;;2.40;99.90;;;2.65;100.00;96851.84;4926520;28;119683;-82
2022/01/05 07:49:27;;;;;;;10.52;6.15;;;2.40;99.90;;;2.65;100.00;96865.25;4913049;28;118614;-79
2022/01/05 07:51:56;;;;;;;16.38;11.35;;;2.40;99.90;;;2.67;100.00;96866.50;4928174;28;129981;-82
2022/01/05 07:54:25;;;;;;;9.30;5.80;;;2.40;99.90;;;2.76;100.00;96866.47;4927961;28;128855;-84
2022/01/05 07:56:54;;;;;;;8.82;5.22;;;2.50;99.90;;;2.74;100.00;96860.63;4927755;28;119090;-81
2022/01/05 07:59:24;;;;;;;10.38;6.60;;;2.50;99.90;;;2.81;100.00;96863.59;4928573;28;118527;-83
2022/01/05 08:01:56;;;;;;;15.32;9.27;;;2.50;99.90;;;2.97;100.00;96868.38;4942156;28;130717;-83
2022/01/05 08:04:26;;;;;;;16.10;10.07;;;2.60;99.90;;;2.95;100.00;96876.75;4961298;28;129138;-82
2022/01/05 08:06:55;;;;;;;36.05;16.70;;;2.70;99.90;;;3.02;100.00;96881.56;4912751;28;118689;-83
2022/01/05 08:09:35;;;;;;;18.10;10.10;;;2.70;99.90;;;3.09;100.00;96887.22;4929821;28;119165;-82
2022/01/05 08:12:13;;;;;;;14.52;9.43;;;2.80;99.90;;;3.07;100.00;96897.47;4928365;28;129462;-84
2022/01/05 08:14:43;;;;;;;8.95;5.63;;;2.90;99.90;;;3.04;100.00;96906.16;4927765;28;128895;-81
2022/01/05 08:17:12;;;;;;;7.97;5.57;;;2.90;99.90;;;3.30;100.00;96908.66;4926025;28;119365;-84
2022/01/05 08:19:41;;;;;;;8.60;4.80;;;3.00;99.90;;;3.27;100.00;96913.88;4946043;28;118792;-81
2022/01/05 08:22:10;;;;;;;8.60;4.38;;;3.10;99.90;;;3.14;100.00;96932.56;4929015;28;128930;-82
2022/01/05 08:24:39;;;;;;;8.55;4.88;;;3.00;99.90;;;3.16;100.00;96934.91;4931743;28;129595;-83
2022/01/05 08:27:08;;;;;;;11.13;6.13;;;3.00;99.90;;;3.19;100.00;96924.31;4931402;28;121222;-85
2022/01/05 08:29:38;;;;;;;8.38;4.55;;;3.00;99.90;;;3.28;100.00;96936.91;4946739;28;122335;-78
2022/01/05 08:32:11;;;;;;;6.70;4.35;;;3.10;99.90;;;3.22;100.00;96944.34;4946625;28;130062;-80
2022/01/05 08:34:40;;;;;;;7.85;4.53;;;3.10;99.90;;;3.26;100.00;96961.34;4932245;28;129226;-79
2022/01/05 08:37:11;;;;;;;7.45;4.35;;;3.10;99.90;;;3.30;100.00;96956.13;4948031;28;119663;-77
2022/01/05 08:39:39;;;;;;;8.65;5.53;;;3.10;99.90;;;3.22;100.00;96966.56;4948316;28;119413;-77
2022/01/05 08:42:16;;;;;;;7.72;4.22;;;3.10;99.90;;;3.21;100.00;96969.56;4946608;28;130029;-77
2022/01/05 08:44:44;;;;;;;7.57;4.25;;;3.10;99.90;;;3.24;100.00;96956.31;4946591;28;129973;-77
2022/01/05 08:47:14;;;;;;;7.45;4.22;;;3.10;99.90;;;3.35;100.00;96954.03;4948520;28;119726;-79
2022/01/05 08:49:58;;;;;;;7.88;4.43;;;3.10;99.90;;;3.44;100.00;96956.66;4916088;28;118042;-79
2022/01/05 08:52:26;;;;;;;8.30;4.88;;;3.20;99.90;;;3.39;100.00;96951.50;4930345;28;129340;-75
2022/01/05 08:54:58;;;;;;;11.23;5.32;;;3.20;99.90;;;3.42;100.00;96962.34;4948588;28;130730;-76
2022/01/05 08:57:27;;;;;;;8.55;5.10;;;3.20;99.90;;;3.38;100.00;96963.31;4946490;28;119642;-82
2022/01/05 08:59:55;;;;;;;8.98;5.78;;;3.30;99.90;;;3.28;100.00;96979.78;4930629;28;119367;-79
2022/01/05 09:02:28;;;;;;;10.68;6.55;;;3.20;99.90;;;3.32;100.00;96975.34;4931598;28;130135;-78
2022/01/05 09:04:58;;;;;;;10.13;6.50;;;3.20;99.90;;;3.44;100.00;96983.47;4948070;28;129247;-83
2022/01/05 09:07:28;;;;;;;13.98;8.15;;;3.30;99.90;;;3.32;100.00;96978.03;4947684;28;118941;-80
2022/01/05 09:09:57;;;;;;;19.38;10.75;;;3.20;99.90;;;3.23;100.00;96986.91;4946784;28;119895;-82
2022/01/05 09:12:26;;;;;;;24.10;14.88;;;3.20;99.90;;;3.30;100.00;96990.97;4947952;28;129223;-82
2022/01/05 09:14:54;;;;;;;21.27;12.75;;;3.20;99.90;;;3.33;100.00;96987.66;4945999;28;129862;-78
2022/01/05 09:17:27;;;;;;;18.20;9.50;;;3.20;99.90;;;3.33;100.00;97004.50;4947486;28;122024;-79
2022/01/05 09:19:56;;;;;;;12.35;7.80;;;3.20;99.90;;;3.40;100.00;96987.91;4945236;28;122994;-80
2022/01/05 09:22:25;;;;;;;13.88;8.20;;;3.20;99.90;;;3.39;100.00;96986.34;4930270;28;129525;-77
2022/01/05 09:24:54;;;;;;;14.38;8.73;;;3.30;99.90;;;3.29;100.00;96992.06;4931181;28;129277;-78
2022/01/05 09:27:24;;;;;;;12.32;7.45;;;3.30;99.90;;;3.27;100.00;97005.78;4947174;28;119954;-79
2022/01/05 09:29:52;;;;;;;14.25;8.38;;;3.30;99.90;;;3.31;100.00;97011.31;4929920;28;119238;-79
2022/01/05 09:32:29;;;;;;;16.48;8.68;;;3.30;99.90;;;3.32;100.00;97018.22;4946592;28;130412;-79
2022/01/05 09:34:58;;;;;;;13.50;8.60;;;3.30;99.90;;;3.29;100.00;97022.38;4945853;28;129752;-79
2022/01/05 09:37:31;;;;;;;13.60;8.82;;;3.30;99.90;;;3.51;100.00;97015.91;4930176;28;118876;-79
2022/01/05 09:42:48;;;;;;;15.30;8.75;;;3.30;99.90;;;3.65;100.00;97025.63;4945802;28;130626;-79
2022/01/05 09:45:23;;;;;;;14.63;8.18;;;3.50;99.90;;;3.88;100.00;97018.81;4944238;28;130179;-79
2022/01/05 09:48:42;;;;;;;11.75;7.93;;;3.60;99.90;;;4.21;100.00;97023.44;4947050;28;119481;-78
2022/01/05 09:51:12;;;;;;;;;;;3.80;99.90;;;4.61;100.00;97017.50;4937917;28;119394;-79
2022/01/05 09:53:41;;;;;;;13.57;8.60;;;4.00;99.90;;;4.72;98.50;97022.44;4929408;28;129352;-79
2022/01/05 09:56:16;;;;;;;12.48;7.93;;;4.10;96.10;;;4.74;97.24;97020.22;4943910;28;129674;-78
2022/01/05 09:58:47;;;;;;;12.50;7.68;;;4.10;92.60;;;4.81;97.27;97017.75;4943919;28;119813;-78
2022/01/05 10:01:17;;;;;;;10.02;6.45;;;4.20;90.10;;;4.66;96.81;97019.97;4944569;28;119523;-79
2022/01/05 10:03:47;;;;;;;11.93;7.38;;;4.20;81.00;;;4.71;96.16;97020.91;4946710;28;130906;-79
2022/01/05 10:06:15;;;;;;;15.13;8.98;;;4.10;77.30;;;4.58;96.94;97023.56;4943934;28;129784;-79
2022/01/05 10:08:50;;;;;;;11.73;7.05;;;4.10;77.10;;;4.45;97.21;97011.19;4942552;28;122226;-79
2022/01/05 10:11:20;;;;;;;10.82;6.63;;;4.10;79.80;;;4.41;97.57;97010.28;4943751;28;121698;-78
2022/01/05 10:13:49;;;;;;;13.07;7.25;;;4.00;77.80;;;4.46;97.58;97016.22;4943608;28;129755;-78
2022/01/05 10:16:19;;;;;;;12.10;7.45;;;4.00;78.40;;;4.42;97.49;97009.16;4943226;28;130030;-78
2022/01/05 10:18:50;;;;;;;9.55;6.32;;;4.00;76.10;;;4.43;96.54;97016.13;4945558;28;119117;-78
2022/01/05 10:21:19;;;;;;;11.25;6.82;;;4.00;72.90;;;4.47;95.72;97006.28;4943615;28;119457;-78
2022/01/05 10:23:51;;;;;;;10.68;6.57;;;4.00;68.80;;;4.25;95.58;97010.91;4945321;28;129285;-77
2022/01/05 10:26:30;;;;;;;11.60;7.15;;;3.90;64.40;;;4.20;96.30;97008.44;4943615;28;130579;-78
2022/01/05 10:29:01;;;;;;;10.73;6.57;;;3.90;64.60;;;4.24;96.01;97006.66;4943907;28;119671;-78
2022/01/05 10:31:36;;;;;;;11.23;6.65;;;3.90;64.70;;;4.27;95.03;97003.31;4929067;28;119903;-78
2022/01/05 10:34:19;;;;;;;12.00;6.65;;;4.00;59.80;;;4.40;94.62;97011.41;4944797;28;129995;-78